Time;durP1;ratioP1;P1;durP2;ratioP2;P2;SDS_P1;SDS_P2;PMS_P1;PMS_P2;Temp;Humidity;BMP_temperature;BMP_pressure;BME280_temperature;BME280_humidity;BME280_pressure;Samples;Min_cycle;Max_cycle;Signal;HPM_P1;HPM_P2
2022/03/04 00:01:36;;;;;;;0.40;0.40;;;;;;;;;;1832691;76;26291;-51
2022/03/04 00:04:03;;;;;;;0.40;0.40;;;;;;;;;;1838110;77;26370;-49
2022/03/04 00:06:31;;;;;;;0.40;0.40;;;;;;;;;;1833858;76;27098;-50
2022/03/04 00:08:58;;;;;;;0.40;0.40;;;;;;;;;;1844753;76;26794;-49
2022/03/04 00:11:25;;;;;;;0.40;0.40;;;;;;;;;;1837020;77;26732;-49
2022/03/04 00:13:52;;;;;;;0.30;0.30;;;;;;;;;;1851526;76;26267;-49
2022/03/04 00:16:20;;;;;;;0.30;0.30;;;;;;;;;;1832440;76;26602;-52
2022/03/04 00:19:06;;;;;;;0.85;0.30;;;;;;;;;;1851582;77;26276;-49
2022/03/04 00:21:17;;;;;;;0.30;0.30;;;;;;;;;;1830416;76;26272;-50
2022/03/04 00:23:45;;;;;;;0.30;0.30;;;;;;;;;;1839675;76;27236;-53
2022/03/04 00:26:13;;;;;;;0.30;0.30;;;;;;;;;;1825854;77;26344;-50
2022/03/04 00:28:40;;;;;;;0.55;0.40;;;;;;;;;;1831199;77;26357;-50
2022/03/04 00:31:08;;;;;;;0.35;0.35;;;;;;;;;;1827110;76;26293;-50
2022/03/04 00:33:36;;;;;;;0.20;0.20;;;;;;;;;;1837220;77;26842;-51
2022/03/04 00:36:03;;;;;;;0.30;0.30;;;;;;;;;;1851722;76;26802;-50
2022/03/04 00:38:31;;;;;;;0.28;0.28;;;;;;;;;;1852752;76;26272;-51
2022/03/04 00:40:58;;;;;;;0.30;0.30;;;;;;;;;;1852456;76;26276;-52
2022/03/04 00:43:26;;;;;;;0.30;0.30;;;;;;;;;;1861268;76;26232;-51
2022/03/04 00:45:53;;;;;;;0.30;0.20;;;;;;;;;;1861898;76;26268;-51
2022/03/04 00:48:20;;;;;;;0.10;0.10;;;;;;;;;;1834336;76;26333;-50
2022/03/04 00:50:48;;;;;;;0.40;0.40;;;;;;;;;;1835489;76;26212;-51
2022/03/04 00:53:15;;;;;;;0.40;0.40;;;;;;;;;;1848645;76;26330;-53
2022/03/04 00:55:42;;;;;;;0.30;0.30;;;;;;;;;;1848555;76;26311;-50
2022/03/04 00:58:10;;;;;;;0.30;0.30;;;;;;;;;;1833138;76;26230;-48
2022/03/04 01:00:37;;;;;;;0.28;0.28;;;;;;;;;;1848410;77;26365;-49
2022/03/04 01:03:04;;;;;;;0.30;0.30;;;;;;;;;;1850856;76;26343;-49
2022/03/04 01:05:32;;;;;;;0.40;0.40;;;;;;;;;;1844650;76;26770;-51
2022/03/04 01:07:59;;;;;;;0.20;0.20;;;;;;;;;;1831556;77;26784;-51
2022/03/04 01:10:26;;;;;;;0.23;0.23;;;;;;;;;;1824498;76;26362;-51
2022/03/04 01:12:53;;;;;;;0.10;0.10;;;;;;;;;;1822483;77;26269;-49
2022/03/04 01:15:21;;;;;;;0.90;0.50;;;;;;;;;;1833175;76;26324;-52
2022/03/04 01:17:48;;;;;;;0.20;0.20;;;;;;;;;;1828814;76;26221;-50
2022/03/04 01:20:15;;;;;;;0.30;0.30;;;;;;;;;;1835781;77;26300;-52
2022/03/04 01:22:43;;;;;;;0.20;0.20;;;;;;;;;;1852510;76;26343;-52
2022/03/04 01:25:11;;;;;;;0.20;0.20;;;;;;;;;;1853571;76;26346;-51
2022/03/04 01:27:39;;;;;;;0.20;0.20;;;;;;;;;;1842484;76;26276;-48
2022/03/04 01:30:07;;;;;;;0.20;0.20;;;;;;;;;;1851811;76;26743;-52
2022/03/04 01:32:34;;;;;;;0.20;0.20;;;;;;;;;;1849556;76;26751;-48
2022/03/04 01:35:02;;;;;;;0.30;0.30;;;;;;;;;;1862435;76;26293;-51
2022/03/04 01:37:29;;;;;;;0.20;0.20;;;;;;;;;;1830873;76;26302;-48
2022/03/04 01:39:56;;;;;;;0.17;0.17;;;;;;;;;;1832597;77;26746;-51
2022/03/04 01:42:24;;;;;;;0.20;0.20;;;;;;;;;;1842090;76;26723;-49
2022/03/04 01:44:51;;;;;;;0.10;0.10;;;;;;;;;;1853030;76;26271;-52
2022/03/04 01:47:18;;;;;;;0.35;0.35;;;;;;;;;;1835324;76;26269;-51
2022/03/04 01:49:46;;;;;;;0.10;0.10;;;;;;;;;;1847894;76;26255;-49
2022/03/04 01:52:13;;;;;;;0.30;0.30;;;;;;;;;;1845421;76;26661;-49
2022/03/04 01:54:41;;;;;;;0.20;0.20;;;;;;;;;;1837985;76;26262;-51
2022/03/04 01:57:09;;;;;;;0.13;0.13;;;;;;;;;;1843813;76;26683;-50
2022/03/04 01:59:36;;;;;;;0.33;0.30;;;;;;;;;;1839829;76;26283;-50
2022/03/04 02:02:03;;;;;;;0.20;0.20;;;;;;;;;;1851780;77;26338;-48
2022/03/04 02:04:31;;;;;;;0.20;0.20;;;;;;;;;;1846140;77;26344;-49
2022/03/04 02:06:58;;;;;;;0.20;0.20;;;;;;;;;;1845803;76;26332;-52
2022/03/04 02:09:25;;;;;;;0.17;0.17;;;;;;;;;;1824252;77;26286;-51
2022/03/04 02:11:52;;;;;;;0.23;0.23;;;;;;;;;;1823107;76;26270;-51
2022/03/04 02:14:20;;;;;;;0.30;0.25;;;;;;;;;;1846781;76;26789;-52
2022/03/04 02:16:49;;;;;;;0.30;0.30;;;;;;;;;;1847126;76;26263;-51
2022/03/04 02:19:17;;;;;;;0.13;0.13;;;;;;;;;;1848869;76;26376;-54
2022/03/04 02:21:52;;;;;;;0.10;0.10;;;;;;;;;;1856669;76;26308;-50
2022/03/04 02:24:22;;;;;;;0.20;0.20;;;;;;;;;;1840209;76;26284;-49
2022/03/04 02:26:49;;;;;;;0.20;0.20;;;;;;;;;;1840616;77;26338;-49
2022/03/04 02:29:17;;;;;;;0.13;0.13;;;;;;;;;;1838332;76;26755;-50
2022/03/04 02:31:44;;;;;;;0.62;0.10;;;;;;;;;;1828288;76;26278;-49
2022/03/04 02:34:12;;;;;;;0.20;0.20;;;;;;;;;;1839250;77;26404;-50
2022/03/04 02:36:39;;;;;;;0.37;0.37;;;;;;;;;;1821793;76;26714;-48
2022/03/04 02:39:07;;;;;;;0.10;0.10;;;;;;;;;;1835357;76;26208;-50
2022/03/04 02:41:34;;;;;;;0.30;0.30;;;;;;;;;;1833516;76;26224;-51
2022/03/04 02:44:03;;;;;;;0.28;0.20;;;;;;;;;;1785690;78;26293;-51
2022/03/04 02:46:30;;;;;;;0.20;0.20;;;;;;;;;;1798648;79;26319;-51
2022/03/04 02:48:57;;;;;;;0.40;0.40;;;;;;;;;;1790350;79;26404;-49
2022/03/04 02:51:25;;;;;;;0.20;0.20;;;;;;;;;;1798782;79;26309;-50
2022/03/04 02:53:52;;;;;;;0.17;0.17;;;;;;;;;;1815053;79;26255;-51
2022/03/04 02:56:20;;;;;;;0.20;0.20;;;;;;;;;;1801699;79;26569;-51
2022/03/04 02:58:47;;;;;;;0.10;0.10;;;;;;;;;;1801831;79;26289;-50
2022/03/04 03:01:14;;;;;;;0.20;0.20;;;;;;;;;;1797402;79;27013;-53
2022/03/04 03:03:42;;;;;;;0.13;0.13;;;;;;;;;;1783722;79;26291;-49
2022/03/04 03:06:10;;;;;;;0.20;0.20;;;;;;;;;;1802685;79;26852;-50
2022/03/04 03:08:38;;;;;;;0.15;0.15;;;;;;;;;;1788904;79;26332;-49
2022/03/04 03:11:05;;;;;;;0.20;0.20;;;;;;;;;;1840231;76;26353;-53
2022/03/04 03:13:32;;;;;;;0.30;0.30;;;;;;;;;;1849123;76;26275;-52
2022/03/04 03:16:00;;;;;;;0.30;0.30;;;;;;;;;;1831707;76;26300;-49
2022/03/04 03:18:28;;;;;;;0.20;0.20;;;;;;;;;;1851540;77;26311;-51
2022/03/04 03:20:55;;;;;;;0.30;0.30;;;;;;;;;;1842011;76;26342;-51
2022/03/04 03:23:22;;;;;;;0.42;0.20;;;;;;;;;;1836757;76;26368;-49
2022/03/04 03:25:49;;;;;;;0.20;0.20;;;;;;;;;;1845684;76;26688;-52
2022/03/04 03:28:17;;;;;;;0.20;0.20;;;;;;;;;;1845273;76;26672;-50
2022/03/04 03:30:44;;;;;;;0.10;0.10;;;;;;;;;;1851984;77;26720;-49
2022/03/04 03:33:11;;;;;;;0.60;0.20;;;;;;;;;;1852819;76;26264;-48
2022/03/04 03:35:38;;;;;;;0.20;0.20;;;;;;;;;;1849793;76;26629;-51
2022/03/04 03:38:05;;;;;;;0.20;0.20;;;;;;;;;;1841849;77;26281;-48
2022/03/04 03:40:33;;;;;;;0.30;0.30;;;;;;;;;;1835054;76;26259;-49
2022/03/04 03:43:00;;;;;;;1.00;0.20;;;;;;;;;;1853693;76;26848;-51
2022/03/04 03:45:28;;;;;;;0.75;0.20;;;;;;;;;;1844686;76;26773;-53
2022/03/04 03:47:56;;;;;;;0.20;0.20;;;;;;;;;;1846115;76;26286;-50
2022/03/04 03:50:23;;;;;;;0.10;0.10;;;;;;;;;;1845372;76;26578;-52
2022/03/04 03:52:50;;;;;;;0.20;0.20;;;;;;;;;;1848482;76;26279;-48
2022/03/04 03:55:18;;;;;;;0.30;0.30;;;;;;;;;;1844007;76;26380;-53
2022/03/04 03:57:46;;;;;;;0.30;0.30;;;;;;;;;;1839965;76;26326;-48
2022/03/04 04:00:14;;;;;;;1.60;0.30;;;;;;;;;;1851184;76;26267;-49
2022/03/04 04:02:42;;;;;;;0.20;0.20;;;;;;;;;;1844129;76;26817;-50
2022/03/04 04:05:12;;;;;;;0.47;0.47;;;;;;;;;;1843574;76;26306;-50
2022/03/04 04:07:40;;;;;;;0.10;0.10;;;;;;;;;;1837385;77;26590;-49
2022/03/04 04:10:08;;;;;;;0.23;0.23;;;;;;;;;;1837574;76;26259;-48
2022/03/04 04:12:36;;;;;;;0.30;0.30;;;;;;;;;;1827725;77;26279;-49
2022/03/04 04:15:04;;;;;;;0.23;0.20;;;;;;;;;;1837774;76;26343;-50
2022/03/04 04:17:31;;;;;;;0.20;0.20;;;;;;;;;;1858912;76;26328;-48
2022/03/04 04:19:58;;;;;;;0.25;0.20;;;;;;;;;;1828497;76;26306;-50
2022/03/04 04:22:25;;;;;;;0.10;0.10;;;;;;;;;;1829191;76;26288;-50
2022/03/04 04:24:53;;;;;;;0.25;0.25;;;;;;;;;;1840190;76;26336;-49
2022/03/04 04:27:20;;;;;;;0.20;0.20;;;;;;;;;;1838351;77;26340;-53
2022/03/04 04:29:47;;;;;;;0.10;0.10;;;;;;;;;;1843539;77;26279;-49
2022/03/04 04:32:14;;;;;;;0.13;0.13;;;;;;;;;;1845080;77;26286;-53
2022/03/04 04:34:42;;;;;;;0.20;0.20;;;;;;;;;;1836611;77;26259;-48
2022/03/04 04:37:09;;;;;;;0.33;0.20;;;;;;;;;;1825096;77;26754;-50
2022/03/04 04:39:36;;;;;;;0.20;0.20;;;;;;;;;;1832742;78;26668;-50
2022/03/04 04:42:05;;;;;;;0.15;0.15;;;;;;;;;;1833705;78;26759;-48
2022/03/04 04:44:32;;;;;;;0.25;0.25;;;;;;;;;;1825871;78;26290;-48
2022/03/04 04:46:59;;;;;;;0.78;0.28;;;;;;;;;;1829695;78;26286;-51
2022/03/04 04:49:27;;;;;;;0.75;0.20;;;;;;;;;;1829574;78;26310;-52
2022/03/04 04:51:54;;;;;;;0.20;0.20;;;;;;;;;;1834189;78;26357;-50
2022/03/04 04:54:21;;;;;;;0.17;0.17;;;;;;;;;;1830144;78;26248;-52
2022/03/04 04:56:48;;;;;;;0.30;0.30;;;;;;;;;;1833132;78;26325;-52
2022/03/04 04:59:16;;;;;;;0.20;0.20;;;;;;;;;;1830649;77;26812;-50
2022/03/04 05:01:43;;;;;;;0.20;0.20;;;;;;;;;;1836040;78;26854;-50
2022/03/04 05:04:10;;;;;;;0.28;0.15;;;;;;;;;;1835776;78;26232;-53
2022/03/04 05:06:38;;;;;;;0.20;0.20;;;;;;;;;;1836220;78;26767;-50
2022/03/04 05:09:05;;;;;;;0.55;0.20;;;;;;;;;;1832759;78;26820;-49
2022/03/04 05:11:32;;;;;;;0.20;0.10;;;;;;;;;;1835829;78;26742;-50
2022/03/04 05:13:59;;;;;;;0.20;0.20;;;;;;;;;;1838988;78;26277;-51
2022/03/04 05:16:27;;;;;;;1.12;0.20;;;;;;;;;;1828797;76;26332;-51
2022/03/04 05:18:54;;;;;;;0.30;0.30;;;;;;;;;;1828489;76;26267;-50
2022/03/04 05:21:21;;;;;;;0.10;0.10;;;;;;;;;;1829535;78;26750;-53
2022/03/04 05:24:01;;;;;;;0.35;0.20;;;;;;;;;;1831252;76;26849;-49
2022/03/04 05:26:30;;;;;;;0.20;0.20;;;;;;;;;;1832957;78;26208;-50
2022/03/04 05:28:59;;;;;;;0.23;0.23;;;;;;;;;;1833827;78;26350;-50
2022/03/04 05:31:26;;;;;;;0.25;0.25;;;;;;;;;;1830930;77;26217;-50
2022/03/04 05:33:53;;;;;;;0.10;0.10;;;;;;;;;;1831908;76;26731;-48
2022/03/04 05:36:21;;;;;;;0.10;0.10;;;;;;;;;;1830426;77;26604;-51
2022/03/04 05:38:49;;;;;;;0.50;0.30;;;;;;;;;;1836964;76;26321;-49
2022/03/04 05:41:17;;;;;;;0.20;0.20;;;;;;;;;;1843763;77;27443;-51
2022/03/04 05:43:45;;;;;;;0.20;0.20;;;;;;;;;;1855626;76;26267;-51
2022/03/04 05:46:13;;;;;;;0.13;0.13;;;;;;;;;;1856038;76;26325;-50
2022/03/04 05:48:41;;;;;;;0.10;0.10;;;;;;;;;;1830216;76;26230;-53
2022/03/04 05:51:09;;;;;;;0.17;0.17;;;;;;;;;;1843190;76;26310;-49
2022/03/04 05:53:37;;;;;;;0.20;0.20;;;;;;;;;;1836850;77;26729;-48
2022/03/04 05:56:05;;;;;;;0.30;0.30;;;;;;;;;;1827146;76;26321;-52
2022/03/04 05:58:32;;;;;;;0.20;0.20;;;;;;;;;;1843335;76;26301;-50
2022/03/04 06:01:00;;;;;;;0.20;0.20;;;;;;;;;;1832475;76;26345;-52
2022/03/04 06:03:28;;;;;;;0.20;0.20;;;;;;;;;;1839121;77;26948;-52
2022/03/04 06:05:56;;;;;;;0.20;0.20;;;;;;;;;;1847348;77;26266;-51
2022/03/04 06:08:23;;;;;;;0.15;0.15;;;;;;;;;;1834282;76;26434;-52
2022/03/04 06:10:51;;;;;;;0.20;0.20;;;;;;;;;;1831250;77;26321;-53
2022/03/04 06:13:18;;;;;;;0.10;0.10;;;;;;;;;;1833822;77;25878;-52
2022/03/04 06:15:46;;;;;;;0.20;0.20;;;;;;;;;;1838136;76;26320;-51
2022/03/04 06:18:13;;;;;;;0.37;0.28;;;;;;;;;;1827823;77;26364;-50
2022/03/04 06:20:40;;;;;;;0.20;0.20;;;;;;;;;;1836912;77;26271;-52
2022/03/04 06:23:08;;;;;;;0.10;0.10;;;;;;;;;;1847076;76;26318;-49
2022/03/04 06:25:35;;;;;;;0.25;0.25;;;;;;;;;;1843689;76;26786;-50
2022/03/04 06:28:03;;;;;;;0.65;0.20;;;;;;;;;;1844726;77;27172;-50
2022/03/04 06:30:36;;;;;;;0.28;0.28;;;;;;;;;;1841502;77;26330;-51
2022/03/04 06:35:50;;;;;;;0.30;0.30;;;;;;;;;;1842077;77;26376;-53
2022/03/04 06:38:17;;;;;;;0.20;0.20;;;;;;;;;;1842567;77;26270;-49
2022/03/04 06:40:46;;;;;;;0.20;0.20;;;;;;;;;;1842260;77;26862;-50
2022/03/04 06:43:13;;;;;;;0.30;0.30;;;;;;;;;;1838798;76;26259;-47
2022/03/04 06:45:42;;;;;;;1.12;0.30;;;;;;;;;;1831152;77;26883;-48
2022/03/04 06:48:11;;;;;;;0.82;0.37;;;;;;;;;;1840829;76;26807;-45
2022/03/04 06:50:38;;;;;;;0.53;0.25;;;;;;;;;;1837620;76;26294;-46
2022/03/04 06:53:06;;;;;;;0.35;0.20;;;;;;;;;;1839176;77;26345;-47
2022/03/04 06:55:34;;;;;;;3.72;0.30;;;;;;;;;;1839321;77;26356;-46
2022/03/04 06:58:01;;;;;;;0.55;0.40;;;;;;;;;;1839662;77;26373;-46
2022/03/04 07:00:29;;;;;;;2.10;0.30;;;;;;;;;;1837100;77;26565;-52
2022/03/04 07:02:56;;;;;;;4.53;0.70;;;;;;;;;;1835281;76;26413;-45
2022/03/04 07:05:24;;;;;;;1.25;0.50;;;;;;;;;;1834496;76;26730;-48
2022/03/04 07:07:53;;;;;;;0.42;0.40;;;;;;;;;;1834687;77;26274;-49
2022/03/04 07:10:21;;;;;;;1.65;0.40;;;;;;;;;;1842691;77;26286;-46
2022/03/04 07:12:49;;;;;;;2.90;0.70;;;;;;;;;;1833217;77;27042;-48
2022/03/04 07:15:16;;;;;;;5.05;0.70;;;;;;;;;;1833995;77;26377;-47
2022/03/04 07:17:45;;;;;;;1.40;0.60;;;;;;;;;;1830846;77;25652;-47
2022/03/04 07:20:13;;;;;;;0.42;0.42;;;;;;;;;;1828156;77;26274;-49
2022/03/04 07:22:42;;;;;;;1.95;0.70;;;;;;;;;;1833067;77;26353;-49
2022/03/04 07:25:11;;;;;;;0.57;0.40;;;;;;;;;;1837195;77;26291;-46
2022/03/04 07:27:39;;;;;;;1.10;0.50;;;;;;;;;;1831852;76;26228;-51
2022/03/04 07:30:08;;;;;;;1.02;0.60;;;;;;;;;;1833146;77;26391;-54
2022/03/04 07:32:36;;;;;;;0.70;0.60;;;;;;;;;;1833483;76;26372;-53
2022/03/04 07:35:04;;;;;;;1.00;0.50;;;;;;;;;;1830615;77;26560;-57
2022/03/04 07:37:31;;;;;;;0.40;0.40;;;;;;;;;;1825815;77;26259;-50
2022/03/04 07:39:58;;;;;;;0.50;0.42;;;;;;;;;;1819508;78;26211;-49
2022/03/04 07:42:25;;;;;;;0.53;0.53;;;;;;;;;;1837621;78;26275;-48
2022/03/04 07:44:53;;;;;;;0.65;0.40;;;;;;;;;;1842837;78;26248;-48
2022/03/04 07:47:20;;;;;;;0.55;0.55;;;;;;;;;;1837513;78;26365;-49
2022/03/04 07:49:48;;;;;;;0.62;0.60;;;;;;;;;;1826574;78;26345;-50
2022/03/04 07:52:15;;;;;;;0.37;0.35;;;;;;;;;;1837319;78;26311;-47
2022/03/04 07:54:43;;;;;;;0.40;0.40;;;;;;;;;;1828937;76;26362;-49
2022/03/04 07:57:11;;;;;;;0.62;0.40;;;;;;;;;;1836621;78;26220;-49
2022/03/04 07:59:38;;;;;;;0.50;0.50;;;;;;;;;;1830511;78;26268;-49
2022/03/04 08:02:06;;;;;;;1.20;0.57;;;;;;;;;;1832905;76;26342;-47
2022/03/04 08:04:33;;;;;;;1.00;0.60;;;;;;;;;;1828135;78;26334;-50
2022/03/04 08:07:00;;;;;;;0.82;0.50;;;;;;;;;;1830725;78;26207;-51
2022/03/04 08:09:28;;;;;;;0.40;0.40;;;;;;;;;;1828575;78;26216;-51
2022/03/04 08:11:55;;;;;;;0.55;0.55;;;;;;;;;;1817587;78;28742;-54
2022/03/04 08:14:22;;;;;;;0.62;0.60;;;;;;;;;;1827951;78;26788;-50
2022/03/04 08:16:49;;;;;;;0.70;0.40;;;;;;;;;;1829572;78;26264;-49
2022/03/04 08:19:17;;;;;;;1.37;0.50;;;;;;;;;;1834649;78;26204;-53
2022/03/04 08:21:45;;;;;;;1.50;0.60;;;;;;;;;;1830781;78;26333;-49
2022/03/04 08:24:12;;;;;;;0.45;0.40;;;;;;;;;;1834306;78;26287;-49
2022/03/04 08:26:41;;;;;;;0.47;0.47;;;;;;;;;;1826760;76;26283;-47
2022/03/04 08:29:10;;;;;;;0.30;0.30;;;;;;;;;;1830007;78;26310;-50
2022/03/04 08:31:38;;;;;;;0.57;0.30;;;;;;;;;;1839023;78;26351;-51
2022/03/04 08:34:05;;;;;;;0.40;0.40;;;;;;;;;;1827549;78;26682;-55
2022/03/04 08:36:33;;;;;;;0.53;0.50;;;;;;;;;;1831905;78;26208;-50
2022/03/04 08:39:03;;;;;;;0.40;0.40;;;;;;;;;;1830774;77;26246;-52
2022/03/04 08:41:29;;;;;;;0.30;0.30;;;;;;;;;;1832438;78;26273;-51
2022/03/04 08:43:57;;;;;;;0.40;0.40;;;;;;;;;;1825032;77;26279;-49
2022/03/04 08:46:24;;;;;;;1.20;0.40;;;;;;;;;;1824139;78;26356;-49
2022/03/04 08:48:52;;;;;;;0.35;0.35;;;;;;;;;;1835837;77;26354;-51
2022/03/04 08:51:24;;;;;;;0.33;0.33;;;;;;;;;;1830144;78;26220;-51
2022/03/04 08:53:48;;;;;;;1.32;0.40;;;;;;;;;;1830015;78;26370;-53
2022/03/04 08:56:15;;;;;;;0.30;0.30;;;;;;;;;;1820614;78;26322;-47
2022/03/04 08:58:43;;;;;;;0.30;0.30;;;;;;;;;;1826948;77;26298;-50
2022/03/04 09:01:10;;;;;;;0.53;0.30;;;;;;;;;;1824127;78;26332;-50
2022/03/04 09:03:37;;;;;;;0.20;0.20;;;;;;;;;;1831832;76;26856;-52
2022/03/04 09:06:04;;;;;;;0.20;0.20;;;;;;;;;;1823989;78;26801;-56
2022/03/04 09:08:32;;;;;;;0.30;0.30;;;;;;;;;;1831752;76;26756;-48
2022/03/04 09:10:59;;;;;;;0.30;0.30;;;;;;;;;;1830573;78;26384;-45
2022/03/04 09:13:27;;;;;;;0.62;0.30;;;;;;;;;;1823873;77;26247;-50
2022/03/04 09:15:54;;;;;;;0.30;0.30;;;;;;;;;;1837375;76;26719;-49
2022/03/04 09:18:22;;;;;;;0.20;0.20;;;;;;;;;;1836217;78;26601;-48
2022/03/04 09:20:49;;;;;;;0.40;0.40;;;;;;;;;;1828810;78;26292;-50
2022/03/04 09:23:16;;;;;;;0.20;0.20;;;;;;;;;;1824658;78;26389;-47
2022/03/04 09:25:43;;;;;;;0.25;0.25;;;;;;;;;;1832877;78;26329;-48
2022/03/04 09:28:11;;;;;;;0.30;0.30;;;;;;;;;;1837544;76;26866;-47
2022/03/04 09:30:38;;;;;;;0.20;0.20;;;;;;;;;;1835729;76;26390;-47
2022/03/04 09:33:06;;;;;;;0.30;0.30;;;;;;;;;;1814928;78;26300;-44
2022/03/04 09:35:33;;;;;;;0.45;0.30;;;;;;;;;;1816976;78;26865;-45
2022/03/04 09:38:00;;;;;;;0.28;0.28;;;;;;;;;;1826962;76;26683;-44
2022/03/04 09:40:28;;;;;;;0.35;0.33;;;;;;;;;;1839816;76;26345;-50
2022/03/04 09:42:55;;;;;;;0.40;0.40;;;;;;;;;;1859626;76;25601;-51
2022/03/04 09:45:22;;;;;;;0.30;0.30;;;;;;;;;;1842439;76;26269;-54
2022/03/04 09:47:50;;;;;;;0.30;0.30;;;;;;;;;;1851257;77;26271;-48
2022/03/04 09:50:17;;;;;;;0.30;0.30;;;;;;;;;;1846676;76;26341;-49
2022/03/04 09:52:48;;;;;;;0.10;0.10;;;;;;;;;;1846353;76;26464;-49
2022/03/04 09:55:16;;;;;;;1.55;0.30;;;;;;;;;;1845585;76;26805;-49
2022/03/04 09:57:43;;;;;;;0.30;0.30;;;;;;;;;;1843108;77;26337;-51
2022/03/04 10:00:11;;;;;;;0.20;0.20;;;;;;;;;;1842313;77;26263;-45
2022/03/04 10:02:39;;;;;;;0.20;0.20;;;;;;;;;;1841439;76;25684;-46
2022/03/04 10:05:08;;;;;;;0.30;0.30;;;;;;;;;;1848654;77;26303;-48
2022/03/04 10:07:44;;;;;;;0.20;0.10;;;;;;;;;;1839826;77;26287;-47
2022/03/04 10:10:13;;;;;;;0.20;0.20;;;;;;;;;;1850170;77;26338;-50
2022/03/04 10:12:51;;;;;;;0.40;0.40;;;;;;;;;;1830943;76;28333;-50
2022/03/04 10:15:18;;;;;;;1.75;0.30;;;;;;;;;;1842149;77;27355;-53
2022/03/04 10:18:00;;;;;;;1.30;0.28;;;;;;;;;;1845614;76;26866;-47
2022/03/04 10:20:34;;;;;;;0.93;0.60;;;;;;;;;;1848687;77;26388;-44
2022/03/04 10:23:17;;;;;;;0.80;0.80;;;;;;;;;;1835561;76;26298;-45
2022/03/04 10:25:45;;;;;;;1.20;1.10;;;;;;;;;;1840983;76;26858;-47
2022/03/04 10:28:13;;;;;;;0.85;0.80;;;;;;;;;;1841583;76;26352;-46
2022/03/04 10:30:45;;;;;;;1.87;0.90;;;;;;;;;;1846164;76;26289;-55
2022/03/04 10:33:14;;;;;;;0.90;0.90;;;;;;;;;;1838392;76;27420;-53
2022/03/04 10:35:42;;;;;;;0.98;0.70;;;;;;;;;;1833385;76;26297;-53
2022/03/04 10:38:20;;;;;;;1.98;0.85;;;;;;;;;;1836767;76;26310;-49
2022/03/04 10:40:48;;;;;;;1.98;1.00;;;;;;;;;;1807934;77;26333;-47
2022/03/04 10:43:21;;;;;;;1.05;1.00;;;;;;;;;;1799689;77;26310;-47
2022/03/04 10:45:45;;;;;;;0.80;0.80;;;;;;;;;;1797140;77;26327;-45
2022/03/04 10:48:14;;;;;;;0.65;0.65;;;;;;;;;;1804439;79;26302;-46
2022/03/04 10:50:45;;;;;;;1.27;0.68;;;;;;;;;;1803723;77;26358;-46
2022/03/04 10:53:14;;;;;;;0.72;0.65;;;;;;;;;;1809247;77;26743;-46
2022/03/04 10:55:46;;;;;;;0.70;0.70;;;;;;;;;;1813167;77;26860;-45
2022/03/04 10:58:15;;;;;;;1.87;0.65;;;;;;;;;;1809288;79;26220;-45
2022/03/04 11:00:46;;;;;;;0.90;0.68;;;;;;;;;;1810450;77;26414;-46
2022/03/04 11:03:14;;;;;;;1.62;0.57;;;;;;;;;;1805943;77;26309;-46
2022/03/04 11:05:42;;;;;;;0.82;0.62;;;;;;;;;;1807605;79;26303;-47
2022/03/04 11:08:10;;;;;;;0.53;0.53;;;;;;;;;;1817514;77;26255;-47
2022/03/04 11:10:37;;;;;;;0.50;0.50;;;;;;;;;;1814588;77;26597;-45
2022/03/04 11:13:05;;;;;;;3.12;0.57;;;;;;;;;;1806736;77;26266;-45
2022/03/04 11:15:33;;;;;;;0.50;0.50;;;;;;;;;;1804749;77;26378;-44
2022/03/04 11:18:05;;;;;;;0.53;0.53;;;;;;;;;;1807285;77;26283;-46
2022/03/04 11:20:32;;;;;;;1.35;0.40;;;;;;;;;;1803840;77;26843;-46
2022/03/04 11:22:59;;;;;;;0.40;0.37;;;;;;;;;;1810344;78;26353;-46
2022/03/04 11:25:28;;;;;;;1.27;0.50;;;;;;;;;;1813686;78;26373;-46
2022/03/04 11:27:56;;;;;;;0.40;0.40;;;;;;;;;;1801284;77;26274;-45
2022/03/04 11:30:33;;;;;;;0.40;0.40;;;;;;;;;;1822299;77;26283;-45
2022/03/04 11:33:08;;;;;;;0.40;0.40;;;;;;;;;;1810966;78;26704;-47
2022/03/04 11:35:36;;;;;;;0.47;0.47;;;;;;;;;;1805859;77;26267;-46
2022/03/04 11:38:03;;;;;;;0.42;0.42;;;;;;;;;;1799921;77;26652;-48
2022/03/04 11:40:33;;;;;;;0.40;0.40;;;;;;;;;;1824382;77;26194;-49
2022/03/04 11:43:01;;;;;;;0.53;0.40;;;;;;;;;;1832395;78;26313;-47
2022/03/04 11:45:30;;;;;;;0.42;0.37;;;;;;;;;;1834095;78;26829;-49
2022/03/04 11:47:58;;;;;;;0.70;0.30;;;;;;;;;;1833251;78;26676;-47
2022/03/04 11:50:30;;;;;;;0.45;0.45;;;;;;;;;;1839105;78;26360;-48
2022/03/04 11:53:05;;;;;;;0.45;0.45;;;;;;;;;;1834237;78;26327;-47
2022/03/04 11:55:32;;;;;;;0.40;0.40;;;;;;;;;;1817890;78;26367;-46
2022/03/04 11:58:00;;;;;;;0.42;0.42;;;;;;;;;;1842177;78;26928;-45
2022/03/04 12:00:28;;;;;;;0.37;0.37;;;;;;;;;;1838465;78;26326;-45
2022/03/04 12:02:56;;;;;;;0.33;0.33;;;;;;;;;;1816329;76;26282;-46
2022/03/04 12:05:30;;;;;;;0.20;0.20;;;;;;;;;;1830663;78;26270;-45
2022/03/04 12:07:58;;;;;;;0.53;0.53;;;;;;;;;;1825071;78;26306;-48
2022/03/04 12:10:26;;;;;;;0.28;0.28;;;;;;;;;;1813778;78;26741;-45
2022/03/04 12:13:01;;;;;;;0.13;0.13;;;;;;;;;;1838501;78;26268;-46
2022/03/04 12:15:35;;;;;;;0.40;0.20;;;;;;;;;;1840424;78;26211;-46
2022/03/04 12:18:03;;;;;;;0.28;0.28;;;;;;;;;;1845428;76;27411;-46
2022/03/04 12:20:31;;;;;;;0.20;0.10;;;;;;;;;;1830003;78;26298;-46
2022/03/04 12:22:59;;;;;;;0.20;0.20;;;;;;;;;;1815836;78;26882;-45
2022/03/04 12:25:45;;;;;;;0.20;0.20;;;;;;;;;;1825183;78;26345;-47
2022/03/04 12:28:20;;;;;;;0.30;0.30;;;;;;;;;;1842055;78;26295;-46
2022/03/04 12:30:49;;;;;;;0.30;0.30;;;;;;;;;;1839418;78;26341;-46
2022/03/04 12:33:17;;;;;;;0.28;0.28;;;;;;;;;;1838542;78;26282;-45
2022/03/04 12:35:44;;;;;;;0.40;0.23;;;;;;;;;;1814863;76;26266;-45
2022/03/04 12:38:11;;;;;;;0.65;0.47;;;;;;;;;;1825101;78;26216;-45
2022/03/04 12:40:39;;;;;;;0.20;0.20;;;;;;;;;;1847299;77;26231;-46
2022/03/04 12:43:09;;;;;;;0.10;0.10;;;;;;;;;;1843847;76;26667;-46
2022/03/04 12:45:35;;;;;;;0.20;0.20;;;;;;;;;;1829392;76;26769;-46
2022/03/04 12:48:03;;;;;;;0.93;0.20;;;;;;;;;;1843421;77;26272;-47
2022/03/04 12:50:31;;;;;;;0.25;0.25;;;;;;;;;;1843311;77;26884;-45
2022/03/04 12:52:58;;;;;;;0.28;0.28;;;;;;;;;;1840165;76;25477;-48
2022/03/04 12:55:26;;;;;;;0.23;0.20;;;;;;;;;;1834965;77;26456;-44
2022/03/04 12:57:53;;;;;;;0.15;0.15;;;;;;;;;;1836737;76;26848;-46
2022/03/04 13:00:22;;;;;;;0.10;0.10;;;;;;;;;;1839109;76;26201;-47
2022/03/04 13:02:49;;;;;;;0.30;0.30;;;;;;;;;;1848311;77;26805;-48
2022/03/04 13:05:16;;;;;;;0.10;0.10;;;;;;;;;;1846414;76;26270;-46
2022/03/04 13:07:44;;;;;;;0.17;0.17;;;;;;;;;;1834531;76;26306;-47
2022/03/04 13:10:13;;;;;;;0.15;0.15;;;;;;;;;;1826297;76;26274;-47
2022/03/04 13:12:44;;;;;;;0.23;0.23;;;;;;;;;;1829071;76;26348;-48
2022/03/04 13:15:11;;;;;;;0.10;0.10;;;;;;;;;;1837747;76;26779;-48
2022/03/04 13:17:38;;;;;;;0.20;0.20;;;;;;;;;;1832324;77;26870;-47
2022/03/04 13:20:07;;;;;;;0.28;0.23;;;;;;;;;;1819097;77;26694;-46
2022/03/04 13:22:34;;;;;;;1.20;0.37;;;;;;;;;;1828329;77;26258;-50
2022/03/04 13:25:01;;;;;;;0.20;0.20;;;;;;;;;;1830335;76;26310;-47
2022/03/04 13:27:40;;;;;;;0.20;0.20;;;;;;;;;;1847120;77;26836;-50
2022/03/04 13:30:08;;;;;;;0.13;0.13;;;;;;;;;;1844751;77;26356;-48
2022/03/04 13:32:37;;;;;;;0.10;0.10;;;;;;;;;;1838808;76;26877;-49
2022/03/04 13:35:05;;;;;;;1.90;0.20;;;;;;;;;;1825721;77;26738;-50
2022/03/04 13:37:39;;;;;;;0.98;0.20;;;;;;;;;;1836609;77;26280;-51
2022/03/04 13:40:12;;;;;;;0.20;0.20;;;;;;;;;;1841445;76;26783;-47
2022/03/04 13:42:43;;;;;;;0.10;0.10;;;;;;;;;;1831967;76;26337;-47
2022/03/04 13:45:14;;;;;;;0.35;0.20;;;;;;;;;;1837407;76;26216;-46
2022/03/04 13:47:43;;;;;;;0.20;0.20;;;;;;;;;;1813609;78;26274;-47
2022/03/04 13:50:12;;;;;;;0.17;0.17;;;;;;;;;;1826732;78;26301;-49
2022/03/04 13:52:41;;;;;;;0.10;0.10;;;;;;;;;;1840318;78;26264;-46
2022/03/04 13:55:09;;;;;;;0.20;0.20;;;;;;;;;;1835601;78;26264;-48
2022/03/04 13:57:37;;;;;;;0.20;0.17;;;;;;;;;;1828236;76;26660;-48
2022/03/04 14:00:09;;;;;;;0.13;0.13;;;;;;;;;;1827539;76;26346;-48
2022/03/04 14:02:39;;;;;;;0.20;0.20;;;;;;;;;;1831988;76;26344;-48
2022/03/04 14:05:07;;;;;;;0.10;0.10;;;;;;;;;;1829217;76;25823;-46
2022/03/04 14:07:42;;;;;;;0.10;0.10;;;;;;;;;;1828867;78;26257;-53
2022/03/04 14:10:10;;;;;;;0.45;0.10;;;;;;;;;;1825365;76;26376;-50
2022/03/04 14:12:38;;;;;;;0.25;0.25;;;;;;;;;;1829445;76;26761;-49
2022/03/04 14:15:05;;;;;;;0.10;0.10;;;;;;;;;;1834569;78;26284;-50
2022/03/04 14:17:33;;;;;;;0.08;0.08;;;;;;;;;;1839035;78;26943;-49
2022/03/04 14:20:00;;;;;;;0.82;0.10;;;;;;;;;;1830748;78;26795;-44
2022/03/04 14:22:27;;;;;;;0.10;0.10;;;;;;;;;;1824920;78;26271;-44
2022/03/04 14:24:54;;;;;;;0.88;0.10;;;;;;;;;;1828022;78;26286;-46
2022/03/04 14:27:22;;;;;;;0.05;0.05;;;;;;;;;;1831591;78;26384;-44
2022/03/04 14:29:49;;;;;;;0.75;0.10;;;;;;;;;;1827969;78;26264;-46
2022/03/04 14:32:16;;;;;;;0.00;0.00;;;;;;;;;;1813646;78;26301;-44
2022/03/04 14:34:44;;;;;;;0.20;0.10;;;;;;;;;;1830190;78;26303;-45
2022/03/04 14:37:11;;;;;;;0.10;0.10;;;;;;;;;;1832414;76;26264;-43
2022/03/04 14:39:38;;;;;;;0.10;0.10;;;;;;;;;;1842110;78;26259;-44
2022/03/04 14:42:06;;;;;;;0.40;0.10;;;;;;;;;;1826804;76;26383;-44
2022/03/04 14:44:34;;;;;;;0.00;0.00;;;;;;;;;;1838322;77;26365;-45
2022/03/04 14:47:02;;;;;;;0.13;0.05;;;;;;;;;;1823224;76;26602;-46
2022/03/04 14:49:29;;;;;;;0.10;0.10;;;;;;;;;;1841259;76;26409;-43
2022/03/04 14:51:56;;;;;;;0.10;0.10;;;;;;;;;;1848695;76;26753;-43